Time;durP1;ratioP1;P1;durP2;ratioP2;P2;SDS_P1;SDS_P2;PMS_P1;PMS_P2;Temp;Humidity;BMP_temperature;BMP_pressure;BME280_temperature;BME280_humidity;BME280_pressure;Samples;Min_cycle;Max_cycle;Signal;HPM_P1;HPM_P2
2022/12/23 00:00:44;;;;;;;;;;;;;;;16.70;58.42;100370.59;2072161;28;19933;-67
2022/12/23 00:01:47;;;;;;;;;;;;;;;16.70;58.31;100369.81;2073279;28;19936;-66
2022/12/23 00:02:48;;;;;;;;;;;;;;;16.70;58.52;100356.19;2074588;28;19991;-66
2022/12/23 00:03:51;;;;;;;;;;;;;;;16.69;58.31;100366.31;2073387;28;20356;-66
2022/12/23 00:04:53;;;;;;;;;;;;;;;16.69;58.35;100370.97;2070839;28;19926;-66
2022/12/23 00:05:56;;;;;;;;;;;;;;;16.70;58.39;100369.81;2070419;28;19937;-66
2022/12/23 00:06:58;;;;;;;;;;;;;;;16.69;58.31;100358.13;2076069;28;19937;-66
2022/12/23 00:08:00;;;;;;;;;;;;;;;16.69;58.29;100360.88;2070573;28;19975;-66
2022/12/23 00:09:03;;;;;;;;;;;;;;;16.69;58.61;100358.13;2070093;28;19936;-66
2022/12/23 00:10:05;;;;;;;;;;;;;;;16.69;58.49;100357.34;2072914;28;19936;-66
2022/12/23 00:11:10;;;;;;;;;;;;;;;16.68;58.42;100351.09;2065726;28;19933;-66
2022/12/23 00:15:04;;;;;;;;;;;;;;;16.69;58.45;100357.34;2064347;28;20315;-66
2022/12/23 00:16:09;;;;;;;;;;;;;;;16.68;58.52;100353.06;2075883;28;19925;-66
2022/12/23 00:17:11;;;;;;;;;;;;;;;16.68;58.31;100351.09;2074444;28;20015;-67
2022/12/23 00:18:23;;;;;;;;;;;;;;;16.67;58.52;100359.69;2071125;28;20404;-66
2022/12/23 00:19:28;;;;;;;;;;;;;;;16.67;58.52;100365.13;2074999;28;19998;-66
2022/12/23 00:20:30;;;;;;;;;;;;;;;16.67;58.60;100365.13;2074546;28;20292;-66
2022/12/23 00:21:32;;;;;;;;;;;;;;;16.67;58.38;100365.13;2073598;28;19960;-66
2022/12/23 00:24:11;;;;;;;;;;;;;;;16.66;58.42;100371.75;2042991;29;19934;-66
2022/12/23 00:25:13;;;;;;;;;;;;;;;16.66;58.82;100369.81;2040329;29;20383;-66
2022/12/23 00:26:16;;;;;;;;;;;;;;;16.67;58.58;100378.75;2043142;29;19950;-66
2022/12/23 00:27:18;;;;;;;;;;;;;;;16.66;58.57;100374.50;2041358;29;20457;-66
2022/12/23 00:28:21;;;;;;;;;;;;;;;16.66;58.49;100374.50;2040444;29;19931;-66
2022/12/23 00:29:23;;;;;;;;;;;;;;;16.66;58.50;100372.56;2041264;29;19950;-66
2022/12/23 00:30:25;;;;;;;;;;;;;;;16.66;58.26;100374.50;2065562;28;19940;-66
2022/12/23 00:31:29;;;;;;;;;;;;;;;16.66;58.50;100369.03;2064741;28;19930;-66
2022/12/23 00:32:31;;;;;;;;;;;;;;;16.66;58.60;100366.31;2064983;28;20391;-66
2022/12/23 00:33:34;;;;;;;;;;;;;;;16.65;58.55;100373.69;2067128;28;19925;-65
2022/12/23 00:34:37;;;;;;;;;;;;;;;16.65;58.39;100370.97;2077348;28;20700;-70
2022/12/23 00:35:39;;;;;;;;;;;;;;;16.66;58.88;100371.75;2075434;28;19933;-66
2022/12/23 00:36:42;;;;;;;;;;;;;;;16.66;58.68;100374.50;2074856;28;19928;-66
2022/12/23 00:37:43;;;;;;;;;;;;;;;16.66;58.21;100378.00;2072789;28;20311;-66
2022/12/23 00:42:55;;;;;;;;;;;;;;;16.65;58.40;100386.56;2067193;28;19954;-65
2022/12/23 00:43:57;;;;;;;;;;;;;;;16.64;58.29;100387.72;2074729;28;19936;-65
2022/12/23 00:45:14;;;;;;;;;;;;;;;16.65;58.66;100389.31;2072899;28;19930;-66
2022/12/23 00:46:16;;;;;;;;;;;;;;;16.63;58.67;100386.97;2072665;28;19937;-66
2022/12/23 00:49:56;;;;;;;;;;;;;;;16.64;58.39;100387.72;2075587;28;19925;-66
2022/12/23 00:50:58;;;;;;;;;;;;;;;16.64;58.06;100390.44;2073133;28;19944;-66
2022/12/23 00:52:00;;;;;;;;;;;;;;;16.64;58.72;100395.91;2073836;28;19933;-66
2022/12/23 00:53:02;;;;;;;;;;;;;;;16.63;58.25;100399.81;2075166;28;19929;-66
2022/12/23 00:54:05;;;;;;;;;;;;;;;16.63;58.60;100399.81;2075791;28;19936;-66
2022/12/23 00:55:07;;;;;;;;;;;;;;;16.63;58.50;100397.09;2075331;28;19933;-66
2022/12/23 00:56:10;;;;;;;;;;;;;;;16.63;58.63;100403.31;2074659;28;20036;-66
2022/12/23 00:57:11;;;;;;;;;;;;;;;16.63;58.72;100399.81;2075002;28;19934;-66
2022/12/23 00:58:14;;;;;;;;;;;;;;;16.62;58.34;100406.44;2076515;28;19932;-66
2022/12/23 00:59:17;;;;;;;;;;;;;;;16.62;58.70;100403.72;2075000;28;20471;-66
2022/12/23 01:00:19;;;;;;;;;;;;;;;16.62;58.63;100407.19;2071681;28;19934;-67
2022/12/23 01:05:39;;;;;;;;;;;;;;;16.62;58.67;100409.16;2066543;28;20296;-65
2022/12/23 01:06:41;;;;;;;;;;;;;;;16.61;58.56;100413.81;2072476;28;19933;-65
2022/12/23 01:07:43;;;;;;;;;;;;;;;16.62;58.62;100409.16;2066672;28;19929;-66
2022/12/23 01:08:45;;;;;;;;;;;;;;;16.61;58.67;100413.03;2065412;28;19926;-66
2022/12/23 01:09:48;;;;;;;;;;;;;;;16.61;58.66;100413.03;2073476;28;20295;-67
2022/12/23 01:10:49;;;;;;;;;;;;;;;16.62;58.61;100412.66;2074236;28;19933;-64
2022/12/23 01:11:52;;;;;;;;;;;;;;;16.61;58.65;100405.66;2065413;28;19934;-64
2022/12/23 01:12:54;;;;;;;;;;;;;;;16.61;58.52;100407.59;2065235;28;19988;-66
2022/12/23 01:13:58;;;;;;;;;;;;;;;16.61;58.66;100413.03;2064808;28;20392;-66
2022/12/23 01:14:59;;;;;;;;;;;;;;;16.61;58.34;100408.38;2070965;28;20377;-66
2022/12/23 01:16:03;;;;;;;;;;;;;;;16.61;58.55;100410.31;2072754;28;20618;-65
2022/12/23 01:17:05;;;;;;;;;;;;;;;16.61;58.60;100413.03;2072280;28;19929;-66
2022/12/23 01:18:10;;;;;;;;;;;;;;;16.59;58.52;100407.97;2072294;28;19929;-65
2022/12/23 01:19:11;;;;;;;;;;;;;;;16.59;58.36;100418.09;2065335;28;20041;-65
2022/12/23 01:20:14;;;;;;;;;;;;;;;16.60;58.28;100416.94;2061991;28;19965;-66
2022/12/23 01:21:16;;;;;;;;;;;;;;;16.60;58.48;100423.19;2072988;28;19940;-66
2022/12/23 01:22:18;;;;;;;;;;;;;;;16.59;58.67;100424.34;2075486;28;19925;-66
2022/12/23 01:23:21;;;;;;;;;;;;;;;16.59;58.41;100420.81;2072207;28;20284;-65
2022/12/23 01:24:26;;;;;;;;;;;;;;;16.59;58.52;100420.81;2070866;28;19929;-65
2022/12/23 01:25:28;;;;;;;;;;;;;;;16.59;58.62;100423.56;2070494;28;19933;-66
2022/12/23 01:26:30;;;;;;;;;;;;;;;16.58;58.59;100422.78;2071906;28;19936;-66
2022/12/23 01:27:32;;;;;;;;;;;;;;;16.59;58.63;100423.56;2073250;28;20501;-66
2022/12/23 01:28:35;;;;;;;;;;;;;;;16.58;58.52;100427.47;2073790;28;19925;-66
2022/12/23 01:29:37;;;;;;;;;;;;;;;16.58;58.43;100422.78;2073512;28;20289;-66
2022/12/23 01:30:39;;;;;;;;;;;;;;;16.57;58.64;100432.13;2074315;28;19929;-66
2022/12/23 01:31:42;;;;;;;;;;;;;;;16.58;58.67;100422.00;2074666;28;20415;-66
2022/12/23 01:32:43;;;;;;;;;;;;;;;16.59;58.63;100423.56;2072691;28;19956;-65
2022/12/23 01:33:47;;;;;;;;;;;;;;;16.59;58.67;100426.28;2073120;28;19934;-65
2022/12/23 01:34:49;;;;;;;;;;;;;;;16.58;58.69;100422.78;2074735;28;19944;-65
2022/12/23 01:35:52;;;;;;;;;;;;;;;16.57;58.66;100423.94;2073998;28;20295;-65
2022/12/23 01:36:54;;;;;;;;;;;;;;;16.57;58.59;100429.38;2072623;28;19933;-66
2022/12/23 01:37:56;;;;;;;;;;;;;;;16.58;58.71;100428.25;2074193;28;19926;-65
2022/12/23 01:38:58;;;;;;;;;;;;;;;16.57;58.39;100431.34;2072428;28;19929;-66
2022/12/23 01:40:00;;;;;;;;;;;;;;;16.57;58.58;100425.91;2073034;28;19933;-64
2022/12/23 01:41:03;;;;;;;;;;;;;;;16.57;58.63;100437.56;2073095;28;20346;-65
2022/12/23 01:43:40;;;;;;;;;;;;;;;16.57;58.38;100436.81;2074267;28;19937;-65
2022/12/23 01:44:49;;;;;;;;;;;;;;;16.57;58.40;100443.03;2073740;28;19933;-65
2022/12/23 01:45:52;;;;;;;;;;;;;;;16.58;58.59;100446.53;2072391;28;19936;-65
2022/12/23 01:46:53;;;;;;;;;;;;;;;16.56;58.71;100451.59;2072502;28;19925;-65
2022/12/23 01:47:57;;;;;;;;;;;;;;;16.57;58.42;100450.44;2071942;28;19929;-65
2022/12/23 01:49:00;;;;;;;;;;;;;;;16.56;58.46;100446.13;2074273;28;20011;-65
2022/12/23 01:50:06;;;;;;;;;;;;;;;16.55;58.41;100450.03;2074071;28;19940;-65
2022/12/23 01:51:12;;;;;;;;;;;;;;;16.55;58.54;100450.03;2073900;28;19929;-65
2022/12/23 01:52:14;;;;;;;;;;;;;;;16.56;58.63;100451.59;2074551;28;19926;-65
2022/12/23 01:53:19;;;;;;;;;;;;;;;16.56;58.55;100448.84;2074056;28;19936;-67
2022/12/23 01:54:21;;;;;;;;;;;;;;;16.56;58.47;100457.81;2073606;28;19933;-65
2022/12/23 01:55:25;;;;;;;;;;;;;;;16.54;58.63;100449.25;2075925;28;19940;-65
2022/12/23 01:56:28;;;;;;;;;;;;;;;16.57;58.65;100461.34;2077260;28;20386;-66
2022/12/23 01:57:31;;;;;;;;;;;;;;;16.55;58.42;100456.28;2076349;28;19937;-66
2022/12/23 01:58:35;;;;;;;;;;;;;;;16.55;58.67;100456.28;2065574;28;20115;-65
2022/12/23 02:03:44;;;;;;;;;;;;;;;16.55;58.65;100469.91;2076207;28;19933;-65
2022/12/23 02:04:48;;;;;;;;;;;;;;;16.54;58.68;100476.50;2074977;28;20414;-66
2022/12/23 02:05:51;;;;;;;;;;;;;;;16.55;58.62;100488.19;2075211;28;19936;-66
2022/12/23 02:09:35;;;;;;;;;;;;;;;16.55;58.39;100482.75;2068649;28;20536;-65
2022/12/23 02:10:43;;;;;;;;;;;;;;;16.55;58.52;100482.75;2065681;28;20336;-66
2022/12/23 02:12:20;;;;;;;;;;;;;;;16.53;58.40;100485.84;2068077;28;19937;-66
2022/12/23 02:13:24;;;;;;;;;;;;;;;16.54;58.63;100484.69;2075071;28;19932;-65
2022/12/23 02:17:21;;;;;;;;;;;;;;;16.54;58.12;100475.75;2075370;28;19929;-66
2022/12/23 02:18:33;;;;;;;;;;;;;;;16.54;58.63;100481.19;2073278;28;19940;-65
2022/12/23 02:19:51;;;;;;;;;;;;;;;16.53;58.64;100487.78;2075322;28;19956;-66
2022/12/23 02:21:10;;;;;;;;;;;;;;;16.52;58.67;100495.22;2072702;28;20312;-66
2022/12/23 02:22:24;;;;;;;;;;;;;;;16.54;58.44;100492.09;2074025;28;19945;-66
2022/12/23 02:23:43;;;;;;;;;;;;;;;16.53;58.41;100490.53;2074400;28;19940;-66
2022/12/23 02:25:10;;;;;;;;;;;;;;;16.52;58.74;100499.88;2074631;28;19930;-67
2022/12/23 02:26:28;;;;;;;;;;;;;;;16.52;58.62;100500.66;2075635;28;20367;-65
2022/12/23 02:27:32;;;;;;;;;;;;;;;16.52;58.42;100499.88;2076725;28;19936;-66
2022/12/23 02:28:42;;;;;;;;;;;;;;;16.53;58.75;100495.97;2067604;28;20466;-66
2022/12/23 02:30:02;;;;;;;;;;;;;;;16.53;58.89;100490.53;2069810;28;19934;-66
2022/12/23 02:31:10;;;;;;;;;;;;;;;16.52;58.25;100497.16;2076745;28;19941;-65
2022/12/23 02:32:16;;;;;;;;;;;;;;;16.51;58.17;100485.47;2076443;28;19937;-66
2022/12/23 02:33:29;;;;;;;;;;;;;;;16.52;58.64;100483.53;2077969;28;19932;-65
2022/12/23 02:34:36;;;;;;;;;;;;;;;16.52;58.64;100486.25;2077250;28;19929;-65
2022/12/23 02:35:42;;;;;;;;;;;;;;;16.50;58.65;100478.47;2074522;28;19929;-65
2022/12/23 02:36:48;;;;;;;;;;;;;;;16.51;58.50;100485.47;2073605;28;19972;-65
2022/12/23 02:37:54;;;;;;;;;;;;;;;16.51;58.45;100487.44;2074302;28;19942;-66
2022/12/23 02:39:00;;;;;;;;;;;;;;;16.51;58.75;100480.00;2075852;28;20299;-66
2022/12/23 02:40:07;;;;;;;;;;;;;;;16.50;58.57;100481.19;2077729;28;19996;-66
2022/12/23 02:41:13;;;;;;;;;;;;;;;16.50;58.17;100483.91;2074078;28;19932;-65
2022/12/23 02:42:16;;;;;;;;;;;;;;;16.50;58.42;100492.09;2081525;28;20422;-65
2022/12/23 02:43:23;;;;;;;;;;;;;;;16.51;58.51;100498.34;2083511;28;19937;-66
2022/12/23 02:44:29;;;;;;;;;;;;;;;16.51;58.57;100501.06;2083440;28;19944;-65
2022/12/23 02:45:34;;;;;;;;;;;;;;;16.50;58.66;100500.25;2082937;28;19929;-65
2022/12/23 02:46:42;;;;;;;;;;;;;;;16.50;58.45;100502.19;2077710;28;19937;-66
2022/12/23 02:47:48;;;;;;;;;;;;;;;16.50;58.52;100508.44;2071021;28;20078;-66
2022/12/23 02:48:54;;;;;;;;;;;;;;;16.50;58.65;100508.44;2073915;28;19941;-66
2022/12/23 02:49:57;;;;;;;;;;;;;;;16.50;58.46;100513.88;2073519;28;20372;-66
2022/12/23 02:51:00;;;;;;;;;;;;;;;16.50;58.69;100508.44;2066152;28;19933;-66
2022/12/23 02:52:05;;;;;;;;;;;;;;;16.50;58.54;100502.19;2066625;28;19940;-65
2022/12/23 02:53:10;;;;;;;;;;;;;;;16.51;58.62;100509.22;2076336;28;20114;-65
2022/12/23 02:54:14;;;;;;;;;;;;;;;16.49;58.70;100504.13;2076540;28;19983;-65
2022/12/23 02:55:17;;;;;;;;;;;;;;;16.50;58.39;100515.81;2073059;28;19940;-65
2022/12/23 02:56:21;;;;;;;;;;;;;;;16.49;58.62;100512.31;2077196;28;19926;-65
2022/12/23 02:57:26;;;;;;;;;;;;;;;16.50;58.80;100518.56;2076829;28;20023;-65
2022/12/23 02:58:31;;;;;;;;;;;;;;;16.49;58.43;100525.19;2076048;28;20303;-65
2022/12/23 02:59:35;;;;;;;;;;;;;;;16.50;58.54;100526.72;2074546;28;19940;-65
2022/12/23 03:00:39;;;;;;;;;;;;;;;16.49;58.59;100528.66;2075897;28;19937;-65
2022/12/23 03:01:43;;;;;;;;;;;;;;;16.49;58.70;100533.34;2072588;28;20024;-66
2022/12/23 03:02:47;;;;;;;;;;;;;;;16.49;58.63;100525.19;2076445;28;19929;-66
2022/12/23 03:03:49;;;;;;;;;;;;;;;16.49;58.59;100527.91;2073855;28;20371;-66
2022/12/23 03:04:52;;;;;;;;;;;;;;;16.49;58.54;100520.50;2074784;28;20534;-66
2022/12/23 03:05:54;;;;;;;;;;;;;;;16.49;58.74;100520.50;2076109;28;19948;-65
2022/12/23 03:06:58;;;;;;;;;;;;;;;16.49;58.73;100525.19;2076740;28;19937;-66
2022/12/23 03:08:06;;;;;;;;;;;;;;;16.49;58.46;100527.91;2074726;28;19936;-66
2022/12/23 03:09:10;;;;;;;;;;;;;;;16.49;58.79;100527.91;2075200;28;20360;-66
2022/12/23 03:10:16;;;;;;;;;;;;;;;16.49;58.40;100533.34;2063749;28;19933;-65
2022/12/23 03:11:19;;;;;;;;;;;;;;;16.48;58.67;100537.22;2064096;28;19939;-66
2022/12/23 03:12:26;;;;;;;;;;;;;;;16.49;58.50;100541.53;2076616;28;19933;-66
2022/12/23 03:13:36;;;;;;;;;;;;;;;16.48;58.49;100539.97;2076900;28;19936;-66
2022/12/23 03:14:56;;;;;;;;;;;;;;;16.49;58.62;100541.53;2074825;28;19930;-66
2022/12/23 03:16:04;;;;;;;;;;;;;;;16.48;58.65;100543.47;2074636;28;19936;-65
2022/12/23 03:17:17;;;;;;;;;;;;;;;16.48;58.60;100539.97;2077177;28;19933;-66
2022/12/23 03:18:22;;;;;;;;;;;;;;;16.47;58.52;100536.47;2075269;28;19932;-66
2022/12/23 03:19:29;;;;;;;;;;;;;;;16.47;58.41;100539.19;2072942;28;20303;-66
2022/12/23 03:20:35;;;;;;;;;;;;;;;16.48;58.48;100538.03;2072991;28;20422;-66
2022/12/23 03:21:42;;;;;;;;;;;;;;;16.48;58.49;100539.97;2073282;28;19929;-66
2022/12/23 03:22:48;;;;;;;;;;;;;;;16.48;58.63;100539.97;2076088;28;19925;-65
2022/12/23 03:23:54;;;;;;;;;;;;;;;16.48;58.72;100542.69;2076006;28;19932;-65
2022/12/23 03:25:03;;;;;;;;;;;;;;;16.48;58.39;100535.28;2077401;28;20016;-66
2022/12/23 03:26:08;;;;;;;;;;;;;;;16.47;58.63;100535.69;2074494;28;19953;-66
2022/12/23 03:27:15;;;;;;;;;;;;;;;16.47;58.70;100535.69;2073168;28;20303;-66
2022/12/23 03:28:19;;;;;;;;;;;;;;;16.48;58.68;100540.75;2076071;28;19936;-65
2022/12/23 03:29:26;;;;;;;;;;;;;;;16.46;58.80;100536.84;2076373;28;20394;-66
2022/12/23 03:30:28;;;;;;;;;;;;;;;16.46;58.73;100540.34;2078232;28;20295;-65
2022/12/23 03:31:32;;;;;;;;;;;;;;;16.46;58.72;100551.25;2076347;28;19933;-65
2022/12/23 03:32:37;;;;;;;;;;;;;;;16.47;58.43;100543.84;2071827;28;20012;-65
2022/12/23 03:33:42;;;;;;;;;;;;;;;16.47;58.68;100552.03;2073390;28;20398;-65
2022/12/23 03:34:46;;;;;;;;;;;;;;;16.47;58.37;100543.84;2072778;28;19926;-65
2022/12/23 03:35:51;;;;;;;;;;;;;;;16.46;58.67;100550.50;2073414;28;19929;-65
2022/12/23 03:36:55;;;;;;;;;;;;;;;16.46;58.75;100547.75;2076964;28;19925;-65
2022/12/23 03:37:59;;;;;;;;;;;;;;;16.47;58.37;100547.38;2075183;28;20379;-65
2022/12/23 03:39:02;;;;;;;;;;;;;;;16.44;58.58;100543.47;2074386;28;20340;-65
2022/12/23 03:40:08;;;;;;;;;;;;;;;16.47;58.70;100552.03;2074917;28;19925;-65
2022/12/23 03:41:13;;;;;;;;;;;;;;;16.46;58.72;100551.25;2075366;28;19936;-65
2022/12/23 03:42:19;;;;;;;;;;;;;;;16.47;58.58;100557.47;2076668;28;19937;-66
2022/12/23 03:43:23;;;;;;;;;;;;;;;16.44;58.45;100546.19;2075658;28;19982;-65
2022/12/23 03:44:27;;;;;;;;;;;;;;;16.46;58.51;100550.50;2075036;28;19936;-64
2022/12/23 03:45:33;;;;;;;;;;;;;;;16.46;58.66;100548.53;2073810;28;19940;-65
2022/12/23 03:46:43;;;;;;;;;;;;;;;16.46;58.40;100545.03;2066934;28;19933;-65
2022/12/23 03:47:50;;;;;;;;;;;;;;;16.46;58.63;100548.53;2064720;28;19940;-65
2022/12/23 03:48:53;;;;;;;;;;;;;;;16.46;58.75;100556.69;2074986;28;20357;-66
2022/12/23 03:49:59;;;;;;;;;;;;;;;16.44;58.73;100548.91;2076625;28;19951;-66
2022/12/23 03:51:04;;;;;;;;;;;;;;;16.44;58.59;100554.34;2071888;28;19936;-66
2022/12/23 03:52:09;;;;;;;;;;;;;;;16.44;58.66;100554.34;2073655;28;19930;-65
2022/12/23 03:53:18;;;;;;;;;;;;;;;16.44;58.55;100553.56;2075066;28;19936;-65
2022/12/23 03:54:23;;;;;;;;;;;;;;;16.44;58.42;100565.25;2076839;28;19932;-66
2022/12/23 03:55:30;;;;;;;;;;;;;;;16.44;58.62;100554.34;2074447;28;19937;-65
2022/12/23 03:56:35;;;;;;;;;;;;;;;16.44;58.73;100553.56;2074425;28;19929;-66
2022/12/23 03:57:40;;;;;;;;;;;;;;;16.43;58.53;100558.22;2074402;28;19935;-66
2022/12/23 03:58:44;;;;;;;;;;;;;;;16.44;58.64;100562.53;2074567;28;19936;-66
2022/12/23 03:59:49;;;;;;;;;;;;;;;16.45;58.40;100557.88;2069860;28;19929;-66
2022/12/23 04:00:55;;;;;;;;;;;;;;;16.42;58.58;100559.41;2072443;28;19933;-66
2022/12/23 04:02:03;;;;;;;;;;;;;;;16.44;58.43;100567.19;2071747;28;19977;-66
2022/12/23 04:03:10;;;;;;;;;;;;;;;16.43;58.71;100565.63;2071462;28;19929;-66
2022/12/23 04:04:15;;;;;;;;;;;;;;;16.44;58.45;100570.72;2070591;28;20012;-66
2022/12/23 04:05:20;;;;;;;;;;;;;;;16.43;58.45;100571.84;2067500;28;19980;-66
2022/12/23 04:06:24;;;;;;;;;;;;;;;16.43;58.39;100577.31;2072034;28;19945;-66
2022/12/23 04:07:29;;;;;;;;;;;;;;;16.43;58.71;100577.31;2072509;28;19930;-66
2022/12/23 04:08:34;;;;;;;;;;;;;;;16.43;58.76;100568.34;2079351;28;20357;-65
2022/12/23 04:09:36;;;;;;;;;;;;;;;16.44;58.49;100575.38;2069782;28;19988;-66
2022/12/23 04:10:39;;;;;;;;;;;;;;;16.43;58.48;100571.84;2062178;28;19930;-65
2022/12/23 04:11:41;;;;;;;;;;;;;;;16.43;58.40;100563.69;2071373;28;19936;-65
2022/12/23 04:12:43;;;;;;;;;;;;;;;16.44;58.40;100569.91;2071578;28;19929;-65
2022/12/23 04:13:45;;;;;;;;;;;;;;;16.43;58.72;100571.84;2061063;28;19946;-65
2022/12/23 04:14:49;;;;;;;;;;;;;;;16.42;58.54;100562.13;2054705;28;19930;-66
2022/12/23 04:15:50;;;;;;;;;;;;;;;16.42;58.48;100569.50;2063211;28;20695;-66
2022/12/23 04:16:54;;;;;;;;;;;;;;;16.43;58.60;100565.63;2071958;28;19933;-66
2022/12/23 04:17:56;;;;;;;;;;;;;;;16.43;58.73;100568.34;2071764;28;19942;-65
2022/12/23 04:19:00;;;;;;;;;;;;;;;16.42;58.61;100567.59;2070981;28;19929;-65
2022/12/23 04:20:02;;;;;;;;;;;;;;;16.42;58.64;100573.03;2070408;28;20007;-66
2022/12/23 04:21:05;;;;;;;;;;;;;;;16.43;58.55;100568.34;2071781;28;19929;-66
2022/12/23 04:22:06;;;;;;;;;;;;;;;16.42;58.39;100574.97;2072178;28;19930;-66
2022/12/23 04:23:09;;;;;;;;;;;;;;;16.41;58.42;100568.72;2070589;28;20012;-66
2022/12/23 04:24:11;;;;;;;;;;;;;;;16.42;58.56;100572.25;2071793;28;19952;-66
2022/12/23 04:25:14;;;;;;;;;;;;;;;16.42;58.57;100577.69;2070642;28;20383;-66
2022/12/23 04:26:16;;;;;;;;;;;;;;;16.42;58.41;100577.69;2069488;28;19933;-66
2022/12/23 04:27:18;;;;;;;;;;;;;;;16.41;58.62;100574.19;2072079;28;19936;-65
2022/12/23 04:28:20;;;;;;;;;;;;;;;16.41;58.78;100582.34;2069970;28;19925;-66
2022/12/23 04:29:22;;;;;;;;;;;;;;;16.41;58.68;100582.34;2060304;28;19993;-66
2022/12/23 04:30:24;;;;;;;;;;;;;;;16.41;58.45;100576.91;2060835;28;19988;-65
2022/12/23 04:31:32;;;;;;;;;;;;;;;16.41;58.42;100579.63;2069377;28;20362;-66
2022/12/23 04:32:34;;;;;;;;;;;;;;;16.41;58.68;100582.34;2063777;28;19934;-66
2022/12/23 04:33:37;;;;;;;;;;;;;;;16.41;58.68;100574.19;2063417;28;19933;-66
2022/12/23 04:34:40;;;;;;;;;;;;;;;16.40;58.45;100575.34;2068501;28;20311;-66
2022/12/23 04:35:42;;;;;;;;;;;;;;;16.40;58.46;100572.63;2062705;28;19930;-65
2022/12/23 04:36:45;;;;;;;;;;;;;;;16.41;58.39;100570.69;2060948;28;20408;-65
2022/12/23 04:37:46;;;;;;;;;;;;;;;16.41;58.43;100574.19;2077736;28;19929;-66
2022/12/23 04:38:49;;;;;;;;;;;;;;;16.41;58.20;100582.34;2076595;28;19929;-66
2022/12/23 04:39:51;;;;;;;;;;;;;;;16.41;58.43;100585.06;2071196;28;19983;-65
2022/12/23 04:40:53;;;;;;;;;;;;;;;16.39;58.72;100584.69;2070983;28;19933;-65
2022/12/23 04:41:55;;;;;;;;;;;;;;;16.40;58.39;100585.47;2071755;28;19929;-65
2022/12/23 04:42:57;;;;;;;;;;;;;;;16.41;58.58;100592.50;2070778;28;19934;-66
2022/12/23 04:43:59;;;;;;;;;;;;;;;16.40;58.46;100590.91;2070129;28;20388;-65
2022/12/23 04:45:01;;;;;;;;;;;;;;;16.41;58.71;100590.53;2069411;28;19936;-65
2022/12/23 04:46:03;;;;;;;;;;;;;;;16.39;58.38;100592.84;2071101;28;19929;-65
2022/12/23 04:47:06;;;;;;;;;;;;;;;16.39;58.64;100595.56;2069913;28;19929;-65
2022/12/23 04:48:08;;;;;;;;;;;;;;;16.39;58.47;100592.09;2070979;28;19965;-64
2022/12/23 04:49:10;;;;;;;;;;;;;;;16.40;58.53;100596.38;2071816;28;19929;-65
2022/12/23 04:50:14;;;;;;;;;;;;;;;16.40;58.42;100590.91;2071810;28;20380;-65
2022/12/23 04:51:17;;;;;;;;;;;;;;;16.39;58.36;100587.41;2072013;28;19929;-65
2022/12/23 04:52:18;;;;;;;;;;;;;;;16.39;58.66;100595.56;2061989;28;19930;-66
2022/12/23 04:53:21;;;;;;;;;;;;;;;16.39;58.67;100595.56;2061040;28;19936;-65
2022/12/23 04:54:22;;;;;;;;;;;;;;;16.39;58.65;100590.13;2071937;28;20375;-65
2022/12/23 04:55:25;;;;;;;;;;;;;;;16.38;58.76;100594.03;2071237;28;19933;-66
2022/12/23 04:56:27;;;;;;;;;;;;;;;16.38;58.45;100599.47;2072044;28;19940;-66
2022/12/23 04:57:29;;;;;;;;;;;;;;;16.39;58.54;100594.81;2071621;28;19929;-66
2022/12/23 04:58:31;;;;;;;;;;;;;;;16.38;58.50;100607.66;2070697;28;19960;-66
2022/12/23 04:59:34;;;;;;;;;;;;;;;16.38;58.57;100599.47;2070276;28;19933;-66
2022/12/23 05:00:35;;;;;;;;;;;;;;;16.38;58.44;100599.47;2072163;28;19944;-66
2022/12/23 05:01:41;;;;;;;;;;;;;;;16.38;58.42;100599.47;2072652;28;20384;-66
2022/12/23 05:02:44;;;;;;;;;;;;;;;16.38;58.51;100594.03;2072049;28;20726;-65
2022/12/23 05:03:46;;;;;;;;;;;;;;;16.38;58.60;100599.47;2071105;28;20419;-66
2022/12/23 05:04:48;;;;;;;;;;;;;;;16.38;58.67;100604.94;2069935;28;19940;-66
2022/12/23 05:05:51;;;;;;;;;;;;;;;16.38;58.30;100604.94;2072257;28;19975;-66
2022/12/23 05:06:54;;;;;;;;;;;;;;;16.38;58.75;100602.19;2064438;28;19933;-66
2022/12/23 05:08:00;;;;;;;;;;;;;;;16.39;58.75;100600.25;2069532;28;19929;-66
2022/12/23 05:09:03;;;;;;;;;;;;;;;16.37;58.77;100603.38;2069892;28;19948;-65
2022/12/23 05:10:06;;;;;;;;;;;;;;;16.38;58.66;100606.84;2071497;28;19929;-66
2022/12/23 05:11:09;;;;;;;;;;;;;;;16.37;58.44;100599.84;2071682;28;19933;-66
2022/12/23 05:12:11;;;;;;;;;;;;;;;16.37;58.67;100606.09;2073335;28;19979;-66
2022/12/23 05:13:13;;;;;;;;;;;;;;;16.37;58.39;100603.38;2071459;28;19930;-66
2022/12/23 05:14:15;;;;;;;;;;;;;;;16.37;58.62;100597.94;2068267;28;20529;-66
2022/12/23 05:15:18;;;;;;;;;;;;;;;16.37;58.60;100606.09;2070285;28;20587;-66
2022/12/23 05:16:19;;;;;;;;;;;;;;;16.37;58.61;100602.59;2070303;28;19936;-66
2022/12/23 05:17:22;;;;;;;;;;;;;;;16.38;58.29;100604.94;2072848;28;20001;-66
2022/12/23 05:18:24;;;;;;;;;;;;;;;16.37;58.39;100603.38;2070266;28;19983;-66
2022/12/23 05:19:26;;;;;;;;;;;;;;;16.37;58.48;100597.94;2068349;28;19952;-66
2022/12/23 05:20:28;;;;;;;;;;;;;;;16.37;58.49;100594.41;2071233;28;20033;-66
2022/12/23 05:21:32;;;;;;;;;;;;;;;16.37;58.59;100610.75;2070184;28;19930;-67
2022/12/23 05:22:34;;;;;;;;;;;;;;;16.36;58.42;100601.78;2072532;28;20360;-67
2022/12/23 05:23:36;;;;;;;;;;;;;;;16.37;58.48;100599.84;2071940;28;19929;-66
2022/12/23 05:24:39;;;;;;;;;;;;;;;16.36;58.54;100599.06;2069689;28;19933;-66
2022/12/23 05:25:40;;;;;;;;;;;;;;;16.37;58.54;100591.69;2069063;28;19930;-65
2022/12/23 05:26:46;;;;;;;;;;;;;;;16.36;58.43;100595.59;2068017;28;20407;-66
2022/12/23 05:27:48;;;;;;;;;;;;;;;16.36;58.59;100585.44;2071055;28;19933;-66
2022/12/23 05:28:51;;;;;;;;;;;;;;;16.36;58.39;100588.16;2070073;28;19975;-67
2022/12/23 05:29:52;;;;;;;;;;;;;;;16.35;58.38;100589.34;2069287;28;19930;-65
2022/12/23 05:30:58;;;;;;;;;;;;;;;16.36;58.75;100590.91;2071856;28;20720;-66
2022/12/23 05:32:00;;;;;;;;;;;;;;;16.36;58.62;100595.59;2070742;28;19952;-67
2022/12/23 05:33:03;;;;;;;;;;;;;;;16.36;58.52;100601.03;2070781;28;20388;-65
2022/12/23 05:34:04;;;;;;;;;;;;;;;16.35;58.42;100599.47;2070629;28;20004;-66
2022/12/23 05:35:09;;;;;;;;;;;;;;;16.35;58.45;100600.25;2062088;28;20020;-65
2022/12/23 05:36:11;;;;;;;;;;;;;;;16.36;58.57;100607.25;2055326;28;20426;-65
2022/12/23 05:37:15;;;;;;;;;;;;;;;16.35;58.70;100596.72;2061971;28;19925;-66
2022/12/23 05:38:16;;;;;;;;;;;;;;;16.36;58.38;100603.75;2068995;28;19929;-66
2022/12/23 05:39:19;;;;;;;;;;;;;;;16.35;58.60;100599.47;2069259;28;19934;-66
2022/12/23 05:40:21;;;;;;;;;;;;;;;16.35;58.69;100600.25;2071257;28;19929;-66
2022/12/23 05:41:25;;;;;;;;;;;;;;;16.35;58.50;100600.25;2071127;28;20303;-66
2022/12/23 05:42:27;;;;;;;;;;;;;;;16.35;58.38;100605.69;2072140;28;19926;-66
2022/12/23 05:43:30;;;;;;;;;;;;;;;16.35;58.40;100599.47;2070883;28;19975;-66
2022/12/23 05:44:31;;;;;;;;;;;;;;;16.35;58.77;100611.16;2068632;28;19929;-66
2022/12/23 05:45:34;;;;;;;;;;;;;;;16.35;58.46;100604.91;2071105;28;19949;-65
2022/12/23 05:46:36;;;;;;;;;;;;;;;16.34;58.69;100604.16;2070714;28;20422;-65
2022/12/23 05:47:39;;;;;;;;;;;;;;;16.35;58.52;100610.34;2071772;28;19933;-66
2022/12/23 05:48:40;;;;;;;;;;;;;;;16.35;59.04;100615.81;2072041;28;19930;-66
2022/12/23 05:49:43;;;;;;;;;;;;;;;16.35;58.49;100618.53;2070923;28;19936;-66
2022/12/23 05:50:47;;;;;;;;;;;;;;;16.34;58.48;100623.22;2071780;28;20422;-66
2022/12/23 05:51:50;;;;;;;;;;;;;;;16.34;58.46;100614.25;2071804;28;19934;-66
2022/12/23 05:52:54;;;;;;;;;;;;;;;16.34;58.40;100617.78;2070027;28;19941;-66
2022/12/23 05:53:57;;;;;;;;;;;;;;;16.34;58.65;100615.03;2053648;28;19934;-66
2022/12/23 05:54:58;;;;;;;;;;;;;;;16.34;58.44;100604.16;2054702;28;19991;-66
2022/12/23 05:56:03;;;;;;;;;;;;;;;16.34;58.63;100604.16;2069595;28;19929;-66